Time;durP1;ratioP1;P1;durP2;ratioP2;P2;SDS_P1;SDS_P2;PMS_P1;PMS_P2;Temp;Humidity;BMP_temperature;BMP_pressure;BME280_temperature;BME280_humidity;BME280_pressure;Samples;Min_cycle;Max_cycle;Signal;HPM_P1;HPM_P2
2021/05/08 00:02:01;;;;;;;6.27;5.67;;;;;;;4.95;88.00;100660.95;649808;220;24774;-73
2021/05/08 00:04:28;;;;;;;7.43;5.53;;;;;;;4.68;85.27;100645.95;648167;220;24764;-73
2021/05/08 00:06:58;;;;;;;5.37;4.87;;;;;;;4.66;85.93;100641.36;638297;225;24817;-73
2021/05/08 00:09:24;;;;;;;5.83;5.17;;;;;;;4.57;86.75;100647.08;638440;224;24802;-73
2021/05/08 00:11:55;;;;;;;5.53;5.00;;;;;;;4.62;87.54;100641.98;638596;225;28035;-73
2021/05/08 00:14:21;;;;;;;5.73;4.87;;;;;;;4.82;87.61;100652.81;648629;220;24767;-72
2021/05/08 00:16:49;;;;;;;6.27;5.17;;;;;;;4.96;86.94;100652.75;647221;221;24792;-72
2021/05/08 00:19:17;;;;;;;7.47;5.70;;;;;;;4.84;87.15;100657.40;637390;225;24921;-73
2021/05/08 00:21:45;;;;;;;5.80;4.80;;;;;;;4.54;86.76;100644.70;650953;220;24820;-72
2021/05/08 00:24:13;;;;;;;6.37;4.90;;;;;;;4.72;87.17;100650.80;638457;224;24804;-72
2021/05/08 00:26:40;;;;;;;5.40;4.90;;;;;;;4.43;87.40;100655.20;650194;220;24770;-73
2021/05/08 00:29:08;;;;;;;5.23;4.73;;;;;;;4.38;88.32;100653.84;650905;220;25821;-73
2021/05/08 00:31:36;;;;;;;4.77;4.30;;;;;;;4.42;88.79;100660.45;647405;221;25072;-74
2021/05/08 00:34:06;;;;;;;5.70;5.20;;;;;;;5.28;85.97;100648.91;631562;225;32630;-73
2021/05/08 00:36:32;;;;;;;6.07;5.47;;;;;;;4.84;86.35;100643.22;648746;218;24885;-73
2021/05/08 00:39:01;;;;;;;6.20;5.17;;;;;;;5.42;84.66;100640.72;641828;221;32491;-73
2021/05/08 00:41:30;;;;;;;6.10;5.50;;;;;;;4.81;86.62;100645.54;650519;220;23673;-73
2021/05/08 00:43:58;;;;;;;5.90;5.30;;;;;;;4.58;86.86;100650.02;650821;220;24755;-74
2021/05/08 00:46:26;;;;;;;5.53;5.03;;;;;;;4.87;85.74;100644.31;632636;225;43351;-73
2021/05/08 00:48:54;;;;;;;5.47;4.97;;;;;;;5.05;85.04;100641.36;645534;219;32637;-73
2021/05/08 00:51:21;;;;;;;6.97;5.90;;;;;;;4.50;87.22;100650.95;639435;222;23688;-73
2021/05/08 00:53:49;;;;;;;5.53;5.03;;;;;;;4.44;88.78;100649.12;639675;221;30219;-74
2021/05/08 00:56:17;;;;;;;5.87;5.23;;;;;;;4.50;88.58;100643.22;639060;220;24865;-73
2021/05/08 00:58:45;;;;;;;5.10;4.60;;;;;;;5.17;85.64;100635.88;633192;221;32656;-73
2021/05/08 01:01:13;;;;;;;4.47;3.97;;;;;;;4.66;86.90;100638.32;638290;221;23739;-73
2021/05/08 01:03:43;;;;;;;6.47;4.70;;;;;;;4.42;86.73;100640.67;635271;225;24779;-73
2021/05/08 01:06:11;;;;;;;4.63;4.23;;;;;;;4.42;87.90;100645.83;649967;221;24788;-73
2021/05/08 01:08:39;;;;;;;7.30;5.20;;;;;;;4.40;87.60;100646.38;649634;221;24788;-74
2021/05/08 01:11:08;;;;;;;5.43;4.80;;;;;;;4.20;87.51;100630.50;638546;220;25488;-73
2021/05/08 01:13:36;;;;;;;6.07;4.90;;;;;;;4.04;88.47;100628.86;638270;221;24891;-73
2021/05/08 01:16:04;;;;;;;4.17;3.77;;;;;;;3.82;88.91;100638.34;638631;224;24814;-74
2021/05/08 01:18:32;;;;;;;4.63;4.23;;;;;;;3.73;89.96;100639.34;643083;221;24813;-73
2021/05/08 01:21:00;;;;;;;4.60;4.10;;;;;;;3.70;90.26;100640.36;648983;220;24813;-73
2021/05/08 01:23:29;;;;;;;4.97;4.57;;;;;;;3.90;90.66;100633.19;636981;224;24853;-73
2021/05/08 01:25:57;;;;;;;5.30;4.60;;;;;;;4.39;87.71;100622.02;633545;225;32847;-73
2021/05/08 01:28:27;;;;;;;4.83;4.42;;;;;;;4.64;85.56;100615.67;640911;221;32585;-73
2021/05/08 01:30:53;;;;;;;4.63;4.10;;;;;;;3.88;86.69;100610.13;640431;221;23730;-73
2021/05/08 01:33:21;;;;;;;5.13;4.50;;;;;;;3.65;88.23;100617.09;637903;224;27996;-73
2021/05/08 01:35:49;;;;;;;5.33;4.73;;;;;;;3.67;89.40;100628.97;642969;221;27987;-73
2021/05/08 01:38:17;;;;;;;5.67;4.37;;;;;;;3.62;89.00;100633.54;648905;221;24806;-73
2021/05/08 01:40:45;;;;;;;5.47;4.20;;;;;;;3.60;90.22;100628.13;637779;225;24776;-73
2021/05/08 01:43:13;;;;;;;5.00;4.60;;;;;;;3.30;91.24;100626.88;650654;221;30066;-73
2021/05/08 01:45:41;;;;;;;4.00;3.70;;;;;;;3.34;90.75;100625.33;640108;221;25079;-73
2021/05/08 01:48:09;;;;;;;4.70;4.30;;;;;;;3.60;90.89;100619.13;638166;225;24846;-72
2021/05/08 01:50:36;;;;;;;7.70;3.83;;;;;;;3.28;90.65;100608.98;650850;221;24756;-73
2021/05/08 01:53:04;;;;;;;4.10;3.70;;;;;;;3.19;91.11;100613.36;638115;225;24925;-73
2021/05/08 01:55:32;;;;;;;4.30;3.80;;;;;;;3.23;91.75;100606.66;637641;225;24849;-73
2021/05/08 01:58:00;;;;;;;3.87;3.50;;;;;;;3.25;92.22;100609.17;636604;225;25972;-73
2021/05/08 02:00:28;;;;;;;4.00;3.70;;;;;;;3.38;90.86;100601.12;651079;219;24762;-72
2021/05/08 02:02:56;;;;;;;3.90;3.60;;;;;;;3.42;91.43;100601.30;649820;219;24824;-73
2021/05/08 02:05:24;;;;;;;4.23;3.90;;;;;;;3.75;90.71;100597.64;637658;225;24859;-72
2021/05/08 02:07:52;;;;;;;4.60;4.10;;;;;;;3.60;90.46;100599.84;649634;220;27992;-73
2021/05/08 02:10:20;;;;;;;4.53;4.10;;;;;;;3.40;89.81;100597.17;649315;218;24790;-72
2021/05/08 02:12:48;;;;;;;3.80;3.50;;;;;;;3.28;90.46;100602.56;652121;220;24824;-73
2021/05/08 02:15:16;;;;;;;4.40;4.00;;;;;;;3.46;90.86;100598.08;650903;220;24788;-73
2021/05/08 02:17:44;;;;;;;4.70;4.20;;;;;;;3.85;88.77;100584.59;642460;221;32532;-73
2021/05/08 02:20:13;;;;;;;3.40;3.10;;;;;;;3.44;88.32;100584.03;648340;221;23727;-73
2021/05/08 02:22:41;;;;;;;4.03;3.73;;;;;;;3.28;90.12;100584.57;636610;224;24801;-72
2021/05/08 02:25:09;;;;;;;4.00;3.63;;;;;;;3.13;91.04;100595.28;626870;229;25136;-73
2021/05/08 02:27:37;;;;;;;4.73;3.60;;;;;;;3.18;90.42;100601.43;638648;225;24809;-72
2021/05/08 02:30:06;;;;;;;4.63;4.23;;;;;;;3.14;90.29;100593.08;637254;225;24788;-73
2021/05/08 02:32:34;;;;;;;3.90;3.47;;;;;;;3.35;88.71;100590.16;635978;225;24860;-73
2021/05/08 02:35:02;;;;;;;4.47;3.17;;;;;;;3.04;89.16;100591.12;637221;225;24803;-73
2021/05/08 02:37:30;;;;;;;4.33;3.80;;;;;;;3.16;89.73;100598.12;648295;220;24853;-73
2021/05/08 02:39:58;;;;;;;3.40;3.10;;;;;;;3.06;89.08;100596.53;637622;225;24819;-73
2021/05/08 02:42:26;;;;;;;4.60;4.20;;;;;;;2.79;90.60;100595.52;649641;221;27972;-73
2021/05/08 02:44:54;;;;;;;6.30;4.33;;;;;;;2.83;92.38;100610.70;647928;220;24791;-73
2021/05/08 02:47:22;;;;;;;5.80;5.20;;;;;;;2.99;93.92;100623.50;635789;225;24810;-73
2021/05/08 02:49:50;;;;;;;6.87;5.80;;;;;;;3.10;95.24;100617.77;638476;223;24829;-72
2021/05/08 02:52:18;;;;;;;6.30;5.30;;;;;;;3.03;95.48;100617.72;638016;224;24922;-73
2021/05/08 02:54:46;;;;;;;5.30;4.70;;;;;;;3.01;95.39;100604.14;635192;225;24840;-73
2021/05/08 02:57:14;;;;;;;4.07;3.67;;;;;;;2.80;93.95;100593.33;640676;223;24814;-72
2021/05/08 02:59:42;;;;;;;5.20;3.93;;;;;;;2.78;94.01;100601.58;638468;224;24857;-72
2021/05/08 03:02:09;;;;;;;4.93;4.43;;;;;;;2.98;93.75;100603.87;638913;221;28079;-72
2021/05/08 03:04:37;;;;;;;4.80;4.30;;;;;;;2.97;93.58;100596.62;638125;225;24800;-72
2021/05/08 03:07:05;;;;;;;4.90;4.40;;;;;;;2.93;93.22;100596.40;635286;225;24927;-73
2021/05/08 03:09:33;;;;;;;5.72;4.37;;;;;;;3.43;91.39;100590.55;642549;220;32528;-73
2021/05/08 03:12:01;;;;;;;4.67;4.27;;;;;;;3.01;92.21;100588.73;638847;223;23713;-73
2021/05/08 03:14:29;;;;;;;4.70;4.30;;;;;;;2.92;92.38;100588.33;649149;220;24800;-74
2021/05/08 03:16:57;;;;;;;4.00;3.70;;;;;;;2.91;92.33;100581.99;637527;224;24839;-72
2021/05/08 03:19:25;;;;;;;3.80;3.50;;;;;;;2.84;92.30;100586.66;648313;221;24809;-72
2021/05/08 03:21:52;;;;;;;4.47;4.07;;;;;;;3.00;92.06;100589.19;651867;220;24876;-72
2021/05/08 03:24:20;;;;;;;4.03;3.63;;;;;;;2.83;92.37;100584.19;649978;220;24808;-72
2021/05/08 03:26:48;;;;;;;3.53;3.23;;;;;;;2.85;92.26;100590.89;636992;225;28055;-72
2021/05/08 03:29:16;;;;;;;6.03;3.97;;;;;;;2.78;91.92;100584.42;649681;221;24790;-73
2021/05/08 03:31:44;;;;;;;3.57;3.20;;;;;;;2.84;91.62;100580.24;636634;224;26993;-72
2021/05/08 03:34:12;;;;;;;4.50;3.80;;;;;;;2.94;91.22;100581.36;652945;220;27949;-74
2021/05/08 03:36:40;;;;;;;5.07;3.50;;;;;;;2.67;91.70;100577.77;651753;220;25017;-74
2021/05/08 03:39:07;;;;;;;4.23;3.67;;;;;;;2.70;91.69;100575.06;635845;224;25909;-73
2021/05/08 03:41:35;;;;;;;4.00;3.70;;;;;;;2.85;91.20;100575.48;637730;225;24830;-72
2021/05/08 03:44:04;;;;;;;4.63;3.27;;;;;;;2.77;90.89;100572.95;638087;225;30290;-73
2021/05/08 03:46:31;;;;;;;3.40;3.20;;;;;;;2.76;91.20;100570.02;643405;220;24835;-72
2021/05/08 03:48:59;;;;;;;3.90;3.50;;;;;;;3.25;89.22;100566.30;632630;225;32702;-72
2021/05/08 03:51:27;;;;;;;2.73;2.37;;;;;;;2.78;89.62;100561.31;642879;221;24830;-71
2021/05/08 03:53:55;;;;;;;5.73;3.50;;;;;;;2.85;90.19;100562.63;637719;221;25068;-72
2021/05/08 03:56:23;;;;;;;3.53;3.23;;;;;;;2.64;90.06;100561.27;642334;221;24826;-72
2021/05/08 03:58:51;;;;;;;3.53;3.20;;;;;;;2.69;90.32;100572.13;637900;225;25139;-73
2021/05/08 04:01:18;;;;;;;3.90;3.10;;;;;;;2.73;89.84;100562.04;638687;221;24850;-73
2021/05/08 04:03:46;;;;;;;4.47;3.60;;;;;;;2.88;88.92;100556.03;637533;221;27066;-72
2021/05/08 04:06:14;;;;;;;5.23;4.23;;;;;;;2.87;89.41;100554.84;638594;224;24818;-74
2021/05/08 04:08:42;;;;;;;9.30;4.30;;;;;;;2.88;89.80;100553.46;652166;220;24854;-73
2021/05/08 04:11:10;;;;;;;3.40;3.10;;;;;;;2.84;89.77;100551.99;633682;225;24819;-73
2021/05/08 04:13:38;;;;;;;4.50;3.93;;;;;;;3.05;89.05;100551.20;646869;220;24859;-72
2021/05/08 04:16:06;;;;;;;6.47;4.07;;;;;;;2.67;89.20;100549.10;644935;220;27986;-72
2021/05/08 04:18:34;;;;;;;5.13;4.40;;;;;;;2.66;89.79;100549.98;651813;220;24825;-72
2021/05/08 04:21:02;;;;;;;7.80;5.43;;;;;;;2.64;90.24;100559.98;637607;225;27988;-72
2021/05/08 04:23:29;;;;;;;8.13;5.00;;;;;;;2.57;91.53;100564.64;649958;219;24812;-71
2021/05/08 04:25:57;;;;;;;5.10;4.43;;;;;;;2.72;91.56;100565.52;649049;221;24805;-72
2021/05/08 04:28:25;;;;;;;5.50;4.90;;;;;;;2.94;91.53;100575.39;642106;221;24811;-73
2021/05/08 04:30:53;;;;;;;5.73;4.90;;;;;;;3.01;92.39;100575.89;638120;225;24856;-73
2021/05/08 04:33:21;;;;;;;6.10;4.97;;;;;;;3.17;91.21;100566.37;639005;225;25313;-73
2021/05/08 04:35:49;;;;;;;7.20;5.27;;;;;;;3.06;90.96;100576.44;639953;223;24797;-73
2021/05/08 04:38:16;;;;;;;5.20;4.10;;;;;;;3.26;91.20;100576.95;638402;225;24815;-72
2021/05/08 04:40:45;;;;;;;8.47;4.60;;;;;;;3.62;90.51;100573.11;639109;225;24825;-73
2021/05/08 04:43:12;;;;;;;5.60;4.90;;;;;;;4.15;89.80;100569.02;638799;224;24814;-73
2021/05/08 04:45:40;;;;;;;5.70;4.40;;;;;;;4.40;87.12;100560.13;640840;223;26960;-72
2021/05/08 04:48:08;;;;;;;7.80;6.00;;;;;;;4.82;84.87;100547.16;637088;224;24806;-73
2021/05/08 04:50:36;;;;;;;5.40;4.60;;;;;;;4.71;83.67;100547.39;637089;223;24809;-72
2021/05/08 04:53:04;;;;;;;4.10;3.47;;;;;;;4.74;84.32;100545.90;637103;225;24826;-73
2021/05/08 04:55:32;;;;;;;4.27;3.50;;;;;;;5.48;82.87;100548.27;631626;225;32666;-74
2021/05/08 04:58:06;;;;;;;5.53;3.90;;;;;;;5.56;83.19;100549.05;637616;225;24874;-74
2021/05/08 05:00:34;;;;;;;5.83;4.25;;;;;;;5.95;80.78;100542.47;635833;220;32685;-74
2021/05/08 05:03:02;;;;;;;4.20;3.80;;;;;;;6.15;81.49;100542.80;638212;221;23694;-72
2021/05/08 05:05:29;;;;;;;6.87;4.93;;;;;;;6.49;80.05;100542.53;640086;221;24790;-72
2021/05/08 05:07:57;;;;;;;4.90;4.40;;;;;;;6.57;79.95;100543.25;646808;221;24891;-73
2021/05/08 05:10:25;;;;;;;5.00;4.50;;;;;;;7.27;76.79;100536.27;631613;225;32657;-73
2021/05/08 05:12:53;;;;;;;4.63;4.30;;;;;;;7.11;77.32;100526.26;638164;223;24794;-73
2021/05/08 05:15:22;;;;;;;5.27;4.57;;;;;;;6.96;76.16;100510.59;638285;225;24843;-73
2021/05/08 05:17:49;;;;;;;4.80;4.30;;;;;;;7.11;77.56;100517.20;639603;220;26931;-73
2021/05/08 05:20:17;;;;;;;4.10;3.80;;;;;;;6.93;77.40;100515.19;637904;221;24823;-73
2021/05/08 05:22:45;;;;;;;3.93;3.63;;;;;;;7.11;76.75;100521.09;642463;221;24830;-73
2021/05/08 05:25:12;;;;;;;3.80;3.50;;;;;;;7.25;75.42;100514.87;637521;225;24813;-73
2021/05/08 05:27:40;;;;;;;4.10;3.53;;;;;;;7.61;75.47;100515.13;638034;225;24790;-74
2021/05/08 05:30:09;;;;;;;4.23;3.83;;;;;;;7.39;75.76;100521.59;648426;221;25050;-73
2021/05/08 05:32:37;;;;;;;4.27;3.80;;;;;;;7.77;77.06;100532.05;652248;219;24769;-73
2021/05/08 05:35:06;;;;;;;3.47;3.17;;;;;;;7.73;79.12;100538.73;639808;223;24802;-73
2021/05/08 05:37:34;;;;;;;4.30;3.90;;;;;;;7.92;78.00;100541.22;639091;222;24815;-73
2021/05/08 05:40:02;;;;;;;4.17;3.77;;;;;;;8.46;77.33;100541.23;641035;221;26467;-73
2021/05/08 05:42:30;;;;;;;4.20;3.80;;;;;;;9.02;75.49;100536.26;638259;221;32985;-74
2021/05/08 05:44:57;;;;;;;4.17;3.87;;;;;;;8.92;74.72;100531.00;639662;221;24839;-74
2021/05/08 05:47:27;;;;;;;4.05;3.70;;;;;;;9.41;72.36;100519.09;632575;225;32687;-73
2021/05/08 05:49:53;;;;;;;3.90;3.57;;;;;;;9.02;73.17;100521.98;643206;220;24844;-73
2021/05/08 05:52:21;;;;;;;4.17;3.77;;;;;;;9.45;72.35;100520.02;639369;221;25011;-74
2021/05/08 05:54:49;;;;;;;4.37;3.97;;;;;;;9.52;72.73;100521.61;642812;221;24813;-72
2021/05/08 05:57:17;;;;;;;3.87;3.30;;;;;;;9.52;73.04;100518.53;645524;220;25988;-73
2021/05/08 05:59:45;;;;;;;4.30;3.90;;;;;;;10.18;72.59;100521.11;634607;220;32691;-74
2021/05/08 06:02:13;;;;;;;4.30;3.90;;;;;;;9.93;72.18;100514.63;633135;225;26978;-73
2021/05/08 06:04:40;;;;;;;4.27;3.53;;;;;;;10.08;71.37;100512.81;646469;220;24823;-73
2021/05/08 06:07:08;;;;;;;3.67;3.37;;;;;;;10.10;72.16;100517.88;638396;220;24824;-70
2021/05/08 06:09:36;;;;;;;4.87;3.87;;;;;;;10.42;69.88;100511.18;642300;220;24827;-71
2021/05/08 06:12:06;;;;;;;3.13;2.93;;;;;;;10.20;70.04;100513.52;638684;225;24835;-71
2021/05/08 06:14:34;;;;;;;4.23;3.27;;;;;;;9.64;71.94;100519.75;638194;225;25110;-74
2021/05/08 06:17:02;;;;;;;3.53;3.23;;;;;;;10.00;73.40;100532.17;637105;225;24808;-74
2021/05/08 06:19:29;;;;;;;4.13;3.70;;;;;;;9.92;72.71;100532.00;644846;221;24763;-73
2021/05/08 06:21:57;;;;;;;3.73;3.33;;;;;;;10.08;74.17;100531.00;648723;220;24772;-73
2021/05/08 06:24:25;;;;;;;3.93;3.60;;;;;;;10.28;72.02;100524.58;632631;225;24849;-70
2021/05/08 06:26:53;;;;;;;7.57;3.70;;;;;;;11.26;69.28;100517.36;643830;221;32829;-73
2021/05/08 06:29:21;;;;;;;5.23;3.17;;;;;;;10.95;68.08;100498.51;638325;220;32704;-73
2021/05/08 06:31:49;;;;;;;4.07;3.50;;;;;;;10.96;69.22;100487.13;642568;221;32675;-73
2021/05/08 06:34:17;;;;;;;4.50;3.50;;;;;;;11.10;69.78;100480.66;628074;225;32682;-73
2021/05/08 06:36:45;;;;;;;4.80;4.30;;;;;;;11.22;69.69;100486.52;650133;220;25827;-73
2021/05/08 06:39:13;;;;;;;4.30;3.57;;;;;;;11.05;69.25;100484.66;639983;224;24808;-73
2021/05/08 06:41:40;;;;;;;4.50;3.60;;;;;;;10.75;69.41;100477.41;645430;220;35469;-72
2021/05/08 06:44:08;;;;;;;4.20;3.80;;;;;;;10.14;70.91;100483.36;637258;225;24893;-72
2021/05/08 06:46:37;;;;;;;3.70;3.40;;;;;;;10.35;72.48;100499.19;639608;220;24809;-73
2021/05/08 06:49:05;;;;;;;5.40;4.20;;;;;;;10.79;71.03;100496.97;639547;221;24918;-73
2021/05/08 06:51:33;;;;;;;3.90;3.50;;;;;;;11.30;69.65;100493.97;633733;220;32688;-74
2021/05/08 06:54:01;;;;;;;3.87;3.47;;;;;;;11.74;68.53;100490.75;645042;220;25002;-72
2021/05/08 06:56:31;;;;;;;3.98;3.58;;;;;;;12.55;66.22;100484.23;644953;220;32532;-73
2021/05/08 06:58:57;;;;;;;3.90;3.13;;;;;;;12.38;64.36;100481.46;649765;220;24775;-72
2021/05/08 07:01:24;;;;;;;4.47;4.07;;;;;;;12.49;65.46;100476.02;638016;225;26976;-70
2021/05/08 07:03:52;;;;;;;5.20;3.40;;;;;;;12.38;63.73;100468.42;637351;225;25300;-71
2021/05/08 07:06:20;;;;;;;4.77;3.20;;;;;;;13.16;63.22;100462.43;636248;220;32815;-71
2021/05/08 07:08:48;;;;;;;3.92;3.52;;;;;;;13.14;63.82;100459.98;631907;223;32867;-70
2021/05/08 07:11:16;;;;;;;4.60;3.53;;;;;;;12.31;64.02;100461.36;648430;221;22869;-70
2021/05/08 07:13:44;;;;;;;4.53;3.50;;;;;;;12.70;64.73;100467.87;632541;224;32693;-72
2021/05/08 07:16:12;;;;;;;4.70;3.35;;;;;;;12.78;63.73;100471.01;644927;221;32528;-71
2021/05/08 07:18:40;;;;;;;5.30;3.87;;;;;;;12.05;65.21;100467.80;652345;220;24794;-71
2021/05/08 07:21:07;;;;;;;3.63;3.33;;;;;;;12.61;64.67;100471.38;636175;225;24860;-70
2021/05/08 07:23:35;;;;;;;5.27;3.80;;;;;;;13.13;63.31;100458.34;649202;221;24760;-71
2021/05/08 07:26:03;;;;;;;5.47;2.73;;;;;;;12.41;63.21;100465.54;637827;225;23789;-70
2021/05/08 07:28:31;;;;;;;3.80;3.50;;;;;;;12.59;64.11;100467.30;638777;221;24822;-71
2021/05/08 07:30:59;;;;;;;4.10;3.63;;;;;;;13.40;61.81;100463.89;648188;220;24786;-72
2021/05/08 07:33:27;;;;;;;4.43;3.47;;;;;;;13.73;60.58;100454.36;635003;225;24813;-71
2021/05/08 07:35:55;;;;;;;4.73;3.50;;;;;;;13.16;60.66;100446.27;640944;220;24825;-71
2021/05/08 07:38:23;;;;;;;5.30;3.23;;;;;;;13.30;61.07;100452.73;637811;221;23874;-71
2021/05/08 07:40:51;;;;;;;3.63;3.13;;;;;;;13.52;60.00;100445.65;643444;220;23904;-71
2021/05/08 07:43:18;;;;;;;4.23;3.60;;;;;;;13.26;61.02;100443.58;644754;221;24180;-71
2021/05/08 07:45:46;;;;;;;4.17;3.77;;;;;;;12.83;61.85;100447.89;634810;225;23893;-70
2021/05/08 07:48:14;;;;;;;4.35;3.30;;;;;;;14.06;59.10;100440.84;629393;225;32844;-70
2021/05/08 07:50:42;;;;;;;4.00;3.60;;;;;;;13.24;59.08;100428.56;636216;225;26885;-72
2021/05/08 07:53:10;;;;;;;6.10;4.80;;;;;;;13.11;61.27;100433.36;642922;221;24809;-70
2021/05/08 07:55:38;;;;;;;6.50;4.13;;;;;;;13.07;60.83;100437.56;637947;221;24826;-71
2021/05/08 07:58:06;;;;;;;5.53;3.87;;;;;;;13.54;61.79;100444.18;640038;221;24803;-71
2021/05/08 08:00:34;;;;;;;6.63;3.60;;;;;;;13.81;59.00;100436.58;635310;224;23800;-71
2021/05/08 08:03:05;;;;;;;4.43;3.70;;;;;;;14.10;59.17;100428.28;642995;221;34254;-71
2021/05/08 08:05:33;;;;;;;6.35;4.03;;;;;;;14.20;58.66;100421.06;630799;225;32701;-70
2021/05/08 08:08:01;;;;;;;6.03;3.60;;;;;;;14.31;59.18;100416.00;637448;225;23735;-71
2021/05/08 08:10:29;;;;;;;6.60;3.67;;;;;;;13.75;59.73;100413.18;643945;220;24079;-70
2021/05/08 08:12:57;;;;;;;4.62;3.40;;;;;;;14.70;57.04;100405.20;633758;220;32626;-71
2021/05/08 08:15:25;;;;;;;4.50;3.40;;;;;;;15.58;57.29;100402.87;638469;220;23746;-70
2021/05/08 08:17:53;;;;;;;3.70;3.33;;;;;;;15.24;55.67;100404.04;642858;221;26999;-70
2021/05/08 08:20:21;;;;;;;5.57;4.03;;;;;;;15.73;54.37;100397.23;638203;221;24814;-70
2021/05/08 08:22:48;;;;;;;5.03;3.57;;;;;;;15.48;54.08;100389.16;636480;225;24791;-73
2021/05/08 08:25:16;;;;;;;3.93;3.50;;;;;;;15.10;57.29;100396.90;648694;221;24810;-71
2021/05/08 08:27:44;;;;;;;3.50;3.20;;;;;;;15.19;56.03;100403.72;650542;220;24752;-71
2021/05/08 08:30:14;;;;;;;4.70;3.67;;;;;;;16.40;56.75;100407.06;639838;223;23858;-71
2021/05/08 08:32:42;;;;;;;5.33;4.13;;;;;;;16.75;54.32;100394.61;648893;220;24762;-71
2021/05/08 08:35:10;;;;;;;4.00;3.60;;;;;;;16.02;55.20;100381.61;648563;221;24785;-70
2021/05/08 08:37:38;;;;;;;5.60;3.77;;;;;;;15.21;57.64;100403.58;637475;225;24858;-71
2021/05/08 08:40:08;;;;;;;7.37;4.27;;;;;;;15.15;59.18;100408.98;636711;225;24842;-71
2021/05/08 08:42:35;;;;;;;5.70;4.60;;;;;;;15.17;56.79;100400.45;645311;220;24857;-71
2021/05/08 08:45:04;;;;;;;5.03;3.77;;;;;;;15.02;57.12;100399.53;636684;225;24908;-71
2021/05/08 08:47:32;;;;;;;4.90;4.07;;;;;;;15.00;57.45;100400.20;635664;225;24799;-71
2021/05/08 08:50:00;;;;;;;4.58;3.50;;;;;;;15.27;56.27;100397.64;633583;220;32628;-74
2021/05/08 08:52:28;;;;;;;5.57;3.53;;;;;;;15.10;57.70;100395.59;646437;220;22678;-71
2021/05/08 08:54:56;;;;;;;10.13;4.13;;;;;;;14.89;58.19;100399.25;637659;224;24775;-71
2021/05/08 08:57:27;;;;;;;10.13;3.93;;;;;;;14.73;57.00;100407.47;638209;225;26031;-71
2021/05/08 08:59:54;;;;;;;6.23;3.70;;;;;;;14.64;59.73;100408.49;636901;224;24880;-72
2021/05/08 09:02:25;;;;;;;4.27;3.83;;;;;;;14.58;59.95;100409.14;638413;225;25060;-71
2021/05/08 09:04:53;;;;;;;11.70;4.20;;;;;;;14.88;60.22;100413.33;640823;220;24848;-71
2021/05/08 09:07:22;;;;;;;7.10;4.00;;;;;;;15.06;59.87;100408.22;639368;221;24810;-71
2021/05/08 09:09:51;;;;;;;7.37;3.50;;;;;;;15.11;58.38;100411.62;642951;218;23848;-70
2021/05/08 09:12:19;;;;;;;6.10;3.40;;;;;;;15.03;57.79;100400.67;638229;221;32887;-70
2021/05/08 09:14:49;;;;;;;4.80;4.00;;;;;;;15.32;58.86;100401.86;638724;221;22713;-71
2021/05/08 09:17:16;;;;;;;5.07;3.40;;;;;;;15.43;56.08;100386.57;643079;221;24908;-71
2021/05/08 09:19:44;;;;;;;4.17;3.67;;;;;;;16.39;55.07;100368.68;638623;220;24813;-71
2021/05/08 09:22:23;;;;;;;3.40;3.10;;;;;;;16.71;54.37;100363.61;645287;221;24803;-71
2021/05/08 09:24:56;;;;;;;7.00;4.10;;;;;;;17.18;54.66;100345.64;637337;225;24068;-71
2021/05/08 09:27:33;;;;;;;6.25;4.90;;;;;;;16.87;56.77;100355.54;632975;225;32618;-71
2021/05/08 09:30:06;;;;;;;6.00;4.77;;;;;;;15.98;60.14;100363.29;643601;220;22713;-71
2021/05/08 09:32:38;;;;;;;4.90;4.40;;;;;;;15.86;60.06;100362.56;642156;221;23836;-71
2021/05/08 09:35:08;;;;;;;6.03;5.23;;;;;;;16.16;59.30;100366.91;636764;225;24842;-71
2021/05/08 09:37:36;;;;;;;5.50;5.00;;;;;;;16.48;58.52;100368.43;637254;225;24799;-71
2021/05/08 09:40:13;;;;;;;5.87;4.80;;;;;;;16.13;58.68;100365.14;644781;220;24820;-71
2021/05/08 09:42:45;;;;;;;6.87;4.70;;;;;;;15.93;60.34;100371.38;635510;225;24796;-70
2021/05/08 09:45:14;;;;;;;47.23;8.10;;;;;;;16.27;60.90;100369.60;640189;221;24810;-70
2021/05/08 09:47:43;;;;;;;8.83;4.43;;;;;;;16.61;57.97;100354.18;650509;220;26928;-71
2021/05/08 09:50:12;;;;;;;6.73;4.10;;;;;;;17.02;55.17;100347.14;650009;220;24796;-71
2021/05/08 09:52:49;;;;;;;5.60;4.37;;;;;;;17.47;52.77;100329.46;649615;220;24827;-71
2021/05/08 09:55:16;;;;;;;7.03;4.10;;;;;;;18.21;53.64;100322.02;636739;225;24841;-71
2021/05/08 09:57:57;;;;;;;3.73;3.30;;;;;;;18.14;52.81;100313.75;649935;220;26952;-72
2021/05/08 10:00:32;;;;;;;3.60;3.10;;;;;;;18.99;51.68;100297.61;648647;220;24814;-71
2021/05/08 10:03:06;;;;;;;3.53;2.77;;;;;;;19.26;48.73;100285.31;636535;225;23862;-71
2021/05/08 10:05:34;;;;;;;3.30;3.00;;;;;;;18.57;49.56;100276.23;632353;225;23847;-71
2021/05/08 10:08:02;;;;;;;5.23;3.23;;;;;;;18.25;49.61;100277.17;636688;224;23829;-72
2021/05/08 10:10:30;;;;;;;5.40;3.17;;;;;;;18.32;51.29;100271.46;637424;225;24836;-72
2021/05/08 10:12:58;;;;;;;3.25;2.70;;;;;;;18.33;50.99;100267.01;639918;220;33037;-72
2021/05/08 10:15:26;;;;;;;3.37;2.83;;;;;;;18.47;53.15;100274.48;649121;220;26879;-71
2021/05/08 10:17:53;;;;;;;3.90;2.60;;;;;;;18.44;49.59;100271.73;639096;221;24888;-72
2021/05/08 10:20:21;;;;;;;10.33;2.67;;;;;;;18.05;51.72;100272.30;640309;221;23842;-71
2021/05/08 10:22:50;;;;;;;4.50;2.77;;;;;;;17.54;50.64;100269.02;645602;220;26040;-71
2021/05/08 10:25:18;;;;;;;4.25;2.50;;;;;;;17.66;49.54;100266.20;644134;220;32558;-71
2021/05/08 10:27:46;;;;;;;4.80;3.17;;;;;;;17.70;49.41;100258.27;650179;220;32133;-71
2021/05/08 10:30:15;;;;;;;3.63;2.50;;;;;;;18.35;50.56;100250.00;648916;220;24776;-71
2021/05/08 10:32:45;;;;;;;2.83;2.53;;;;;;;18.83;50.17;100241.30;650055;220;23785;-71
2021/05/08 10:35:13;;;;;;;7.40;3.00;;;;;;;18.34;50.14;100241.80;649436;220;24795;-71
2021/05/08 10:37:41;;;;;;;4.07;3.13;;;;;;;18.50;49.58;100239.33;650387;220;23773;-71
2021/05/08 10:40:14;;;;;;;4.97;2.53;;;;;;;18.64;49.81;100234.45;635513;225;23835;-71
2021/05/08 10:42:42;;;;;;;4.00;2.70;;;;;;;18.89;49.33;100230.80;649302;221;23812;-71
2021/05/08 10:45:31;;;;;;;3.50;2.20;;;;;;;19.19;47.61;100219.89;632889;225;23871;-71
2021/05/08 10:48:06;;;;;;;4.83;2.43;;;;;;;17.98;47.98;100211.70;640768;220;24791;-74
2021/05/08 10:50:38;;;;;;;4.70;2.80;;;;;;;17.39;50.05;100208.62;638995;224;23897;-73
2021/05/08 10:53:06;;;;;;;4.10;2.37;;;;;;;17.87;50.63;100212.23;638265;224;23843;-71
2021/05/08 10:55:42;;;;;;;5.30;2.50;;;;;;;17.89;48.66;100210.75;636018;225;23821;-71
2021/05/08 10:58:32;;;;;;;2.50;2.03;;;;;;;17.93;50.90;100217.25;640305;221;23814;-71
2021/05/08 11:01:00;;;;;;;3.70;2.43;;;;;;;18.29;48.32;100210.45;636940;225;25146;-71
2021/05/08 11:03:28;;;;;;;3.60;2.10;;;;;;;18.60;49.97;100209.49;647888;220;25908;-71
2021/05/08 11:05:56;;;;;;;4.20;2.23;;;;;;;18.76;48.45;100207.03;637542;225;23894;-71
2021/05/08 11:08:34;;;;;;;4.20;2.30;;;;;;;19.35;46.41;100201.03;644101;221;32670;-71
2021/05/08 11:11:02;;;;;;;5.77;2.30;;;;;;;18.72;48.05;100194.44;643037;221;25000;-71
2021/05/08 11:13:41;;;;;;;4.93;1.97;;;;;;;18.67;47.21;100189.77;637966;222;23832;-71
2021/05/08 11:16:10;;;;;;;6.30;2.13;;;;;;;18.91;48.13;100199.77;632836;225;24808;-71
2021/05/08 11:18:39;;;;;;;3.47;1.80;;;;;;;19.50;47.24;100188.45;649473;220;23787;-71
2021/05/08 11:21:27;;;;;;;10.43;2.77;;;;;;;19.20;45.76;100180.64;650107;221;25861;-71
2021/05/08 11:23:57;;;;;;;5.27;1.70;;;;;;;19.32;43.58;100164.52;638876;224;23831;-72
2021/05/08 11:26:33;;;;;;;1.73;1.20;;;;;;;19.19;44.90;100161.88;635928;225;24848;-71
2021/05/08 11:29:01;;;;;;;3.83;1.50;;;;;;;18.75;45.50;100152.71;638947;221;23815;-71
2021/05/08 11:31:29;;;;;;;2.10;1.40;;;;;;;18.86;45.19;100157.40;644875;221;24836;-74
2021/05/08 11:34:06;;;;;;;4.73;1.30;;;;;;;17.99;46.35;100155.42;643023;221;23838;-73
2021/05/08 11:36:42;;;;;;;2.50;1.30;;;;;;;18.05;45.75;100146.77;644809;220;26001;-70